Terminal Aerodrome Forecast
Issued by NWS

Home | Current Version | Previous Version | Text Only | Print | Product List | Glossary On
Versions: 1 2 3 4 5 6 7 8 9 10 11 12 13 14 15 16 17 18
894
FTUS42 KJAX 021120
TAFVQQ
TAF
KVQQ 021120Z 0212/0312 16002KT P6SM FEW025 BKN250
     FM021400 21007KT P6SM SCT035 BKN200
     FM021900 15010KT P6SM SCT035 BKN200
     FM022300 16007KT P6SM VCTS FEW050CB SCT150 BKN250
     FM030100 17005KT P6SM FEW040 BKN100=

USA.gov is the U.S. government's official web portal to all federal, state and local government web resources and services.